DNKN

Mallam Aminu International Airport

Kano, Nigeria
METAR DNKN 152200Z 24004KT CAVOK 26/23 Q1017 NOSIG
Observed Flight Rules
Aug-15 @ 22:00 UTC (28 minutes ago) Visual Flight Rules
Wind Visibility Clouds
240° at 4 knots 10,000+ meters
  • Clear skies
Temperatures Readings
Current 26°C / 79°F
Dewpoint 23°C / 73°F
Humidity 84%
Altimeter 30.03" Hg
Pressure 1017 hPa
Elevation 481
METAR DNKN 152200Z 24004KT CAVOK 26/23 Q1017 NOSIG
Observed Flight Rules
Aug-15 @ 22:00 UTC
(28 minutes ago)
VFR
Wind Visibility
240° at 4 knots 10,000+ meters
Clouds
  • Clear skies
Temperature Dewpoint
26°C / 79°F 23°C / 73°F
Humidity Altimeter Pressure
84% 30.03" Hg 1017 hPa